Time,TemperatureF,DewpointF,PressureIn,WindDirection,WindDirectionDegrees,WindSpeedMPH,WindSpeedGustMPH,Humidity,HourlyPrecipIn,Conditions,Clouds,dailyrainin,SoftwareType,DateUTC
2013-02-21 00:00:00,29.0,12.2,30.10,SE,135,1.0,4.0,49,0.00,,,-99.99,WeatherLink 5.4,2013-02-21 05:00:00,
2013-02-21 00:30:00,28.8,12.5,30.10,North,-999,0.0,0.0,50,0.00,,,-99.99,WeatherLink 5.4,2013-02-21 05:30:00,
2013-02-21 01:00:00,28.3,12.9,30.10,North,-999,0.0,0.0,52,0.00,,,-99.99,WeatherLink 5.4,2013-02-21 06:00:00,
2013-02-21 01:30:00,28.5,13.5,30.10,SE,135,0.0,2.0,53,0.00,,,-99.99,WeatherLink 5.4,2013-02-21 06:30:00,
2013-02-21 02:00:00,29.1,13.2,30.10,SE,135,1.0,3.0,51,0.00,,,-99.99,WeatherLink 5.4,2013-02-21 07:00:00,
2013-02-21 02:30:00,28.5,13.1,30.10,NNW,337,2.0,6.0,52,0.00,,,-99.99,WeatherLink 5.4,2013-02-21 07:30:00,
2013-02-21 03:00:00,27.7,12.8,30.11,NNW,337,0.0,3.0,53,0.00,,,-99.99,WeatherLink 5.4,2013-02-21 08:00:00,
2013-02-21 03:30:00,27.9,12.5,30.10,NNW,337,1.0,5.0,52,0.00,,,-99.99,WeatherLink 5.4,2013-02-21 08:30:00,
2013-02-21 04:00:00,28.3,12.9,30.10,NNW,337,0.0,1.0,52,0.00,,,-99.99,WeatherLink 5.4,2013-02-21 09:00:00,
2013-02-21 04:30:00,28.9,12.1,30.10,NNW,337,1.0,5.0,49,0.00,,,-99.99,WeatherLink 5.4,2013-02-21 09:30:00,
2013-02-21 05:00:00,30.3,14.8,30.10,NNW,337,1.0,6.0,52,0.00,,,-99.99,WeatherLink 5.4,2013-02-21 10:00:00,
2013-02-21 05:30:00,28.4,15.1,30.10,NNW,337,3.0,7.0,57,0.00,,,-99.99,WeatherLink 5.4,2013-02-21 10:30:00,
2013-02-21 06:00:00,26.8,14.4,30.11,NNW,337,1.0,4.0,59,0.00,,,-99.99,WeatherLink 5.4,2013-02-21 11:00:00,
2013-02-21 06:30:00,27.4,13.7,30.11,NNW,337,0.0,3.0,56,0.00,,,-99.99,WeatherLink 5.4,2013-02-21 11:30:00,
2013-02-21 07:00:00,28.0,13.1,30.11,North,-999,0.0,1.0,53,0.00,,,-99.99,WeatherLink 5.4,2013-02-21 12:00:00,
2013-02-21 07:30:00,28.5,13.5,30.12,NNW,337,0.0,2.0,53,0.00,,,-99.99,WeatherLink 5.4,2013-02-21 12:30:00,
2013-02-21 08:00:00,29.7,11.4,30.13,NNW,337,0.0,3.0,46,0.00,,,-99.99,WeatherLink 5.4,2013-02-21 13:00:00,
2013-02-21 08:30:00,31.7,15.2,30.14,NNW,337,1.0,4.0,50,0.00,,,-99.99,WeatherLink 5.4,2013-02-21 13:30:00,
2013-02-21 08:35:00,31.5,14.6,30.14,NNW,344,1.0,2.0,49,0.00,,SKC,0.00,VWS V12.07,2013-02-21 13:35:00,
2013-02-21 09:00:00,32.4,16.7,30.14,NNW,337,1.0,4.0,52,0.00,,,-99.99,WeatherLink 5.4,2013-02-21 14:00:00,
2013-02-21 09:30:00,34.9,19.0,30.14,NNW,337,1.0,5.0,52,0.00,,,-99.99,WeatherLink 5.4,2013-02-21 14:30:00,
2013-02-21 10:00:00,36.5,16.6,30.15,NNW,337,0.0,3.0,44,0.00,,,-99.99,WeatherLink 5.4,2013-02-21 15:00:00,
2013-02-21 10:30:00,40.6,15.0,30.14,North,-999,0.0,0.0,35,0.00,,,-99.99,WeatherLink 5.4,2013-02-21 15:30:00,
2013-02-21 11:00:00,44.3,12.4,30.13,North,-999,0.0,0.0,27,0.00,,,-99.99,WeatherLink 5.4,2013-02-21 16:00:00,
2013-02-21 11:30:00,49.6,10.1,30.12,NNW,337,1.0,5.0,20,0.00,,,-99.99,WeatherLink 5.4,2013-02-21 16:30:00,
2013-02-21 12:00:00,52.9,9.2,30.11,NNW,337,1.0,5.0,17,0.00,,,-99.99,WeatherLink 5.4,2013-02-21 17:00:00,
2013-02-21 12:30:00,56.0,14.3,30.09,SSE,157,2.0,8.0,19,0.00,,,-99.99,WeatherLink 5.4,2013-02-21 17:30:00,
2013-02-21 13:00:00,58.2,20.5,30.08,SSE,157,2.0,7.0,23,0.00,,,-99.99,WeatherLink 5.4,2013-02-21 18:00:00,
2013-02-21 13:30:00,59.6,25.5,30.05,SSE,157,3.0,9.0,27,0.00,,,-99.99,WeatherLink 5.4,2013-02-21 18:30:00,
2013-02-21 14:00:00,60.3,25.2,30.05,SSE,157,6.0,14.0,26,0.00,,,-99.99,WeatherLink 5.4,2013-02-21 19:00:00,
2013-02-21 14:30:00,60.0,25.9,30.06,SSE,157,8.0,13.0,27,0.00,,,-99.99,WeatherLink 5.4,2013-02-21 19:30:00,
2013-02-21 15:00:00,59.1,26.8,30.04,SE,135,8.0,13.0,29,0.00,,,-99.99,WeatherLink 5.4,2013-02-21 20:00:00,
2013-02-21 15:30:00,59.4,26.2,30.04,SE,135,9.0,13.0,28,0.00,,,-99.99,WeatherLink 5.4,2013-02-21 20:30:00,
2013-02-21 16:00:00,58.4,25.4,30.03,SE,135,7.0,12.0,28,0.00,,,-99.99,WeatherLink 5.4,2013-02-21 21:00:00,
2013-02-21 16:30:00,57.4,25.4,30.04,SE,135,8.0,12.0,29,0.00,,,-99.99,WeatherLink 5.4,2013-02-21 21:30:00,
2013-02-21 17:00:00,56.8,25.7,30.01,SE,135,7.0,12.0,30,0.00,,,-99.99,WeatherLink 5.4,2013-02-21 22:00:00,
2013-02-21 17:30:00,56.0,25.8,30.01,SE,135,6.0,13.0,31,0.00,,,-99.99,WeatherLink 5.4,2013-02-21 22:30:00,
2013-02-21 18:00:00,54.9,26.3,30.00,SE,135,8.0,16.0,33,0.00,,,-99.99,WeatherLink 5.4,2013-02-21 23:00:00,
2013-02-21 18:01:00,54.9,26.3,30.00,SE,135,8.0,16.0,33,0.00,,,-99.99,WeatherLink 5.4,2013-02-21 23:01:00,
2013-02-21 18:30:00,53.5,26.5,29.99,SE,135,12.0,22.0,35,0.00,,,-99.99,WeatherLink 5.4,2013-02-21 23:30:00,
2013-02-21 19:00:00,52.8,27.2,30.02,SE,135,5.0,18.0,37,0.00,,,-99.99,WeatherLink 5.4,2013-02-22 00:00:00,
2013-02-21 19:30:00,52.4,28.1,30.06,SE,135,7.0,14.0,39,0.00,,,-99.99,WeatherLink 5.4,2013-02-22 00:30:00,
2013-02-21 19:35:00,51.3,27.2,30.07,SE,135,5.0,10.0,39,0.00,,OVC,0.00,VWS V12.07,2013-02-22 00:35:00,
2013-02-21 20:00:00,50.3,33.3,30.09,SE,135,6.0,10.0,52,0.01,,,-99.99,WeatherLink 5.4,2013-02-22 01:00:00,
2013-02-21 20:30:00,45.2,38.7,30.07,SE,135,2.0,8.0,78,0.08,,,-99.99,WeatherLink 5.4,2013-02-22 01:30:00,
2013-02-21 21:00:00,42.8,38.6,30.06,SE,135,8.0,18.0,85,0.15,,,-99.99,WeatherLink 5.4,2013-02-22 02:00:00,
2013-02-21 21:30:00,42.0,39.6,30.05,SE,135,12.0,21.0,91,0.15,,,-99.99,WeatherLink 5.4,2013-02-22 02:30:00,
2013-02-21 22:00:00,41.4,40.1,30.08,SE,135,13.0,22.0,95,0.14,,,-99.99,WeatherLink 5.4,2013-02-22 03:00:00,
2013-02-21 22:30:00,41.8,40.2,30.11,SE,135,5.0,18.0,94,0.13,,,-99.99,WeatherLink 5.4,2013-02-22 03:30:00,
2013-02-21 23:00:00,41.8,40.5,30.11,NW,315,2.0,7.0,95,0.08,,,-99.99,WeatherLink 5.4,2013-02-22 04:00:00,
2013-02-21 23:30:00,41.5,41.0,30.14,SE,135,3.0,12.0,98,0.04,,,-99.99,WeatherLink 5.4,2013-02-22 04:30:00,